TimeEDT,TemperatureF,Dew PointF,Humidity,Sea Level PressureIn,VisibilityMPH,Wind Direction,Wind SpeedMPH,Gust SpeedMPH,PrecipitationIn,Events,Conditions,WindDirDegrees,DateUTC
12:54 AM,51.1,39.0,63,30.09,10.0,West,4.6,-,N/A,,Clear,280,2012-10-22 04:54:00
1:54 AM,50.0,39.0,66,30.10,10.0,West,5.8,-,N/A,,Clear,280,2012-10-22 05:54:00
2:54 AM,50.0,39.0,66,30.11,10.0,Variable,3.5,-,N/A,,Clear,0,2012-10-22 06:54:00
3:54 AM,46.9,39.9,77,30.10,10.0,Calm,Calm,-,N/A,,Clear,0,2012-10-22 07:54:00
4:54 AM,46.0,41.0,83,30.11,10.0,SW,3.5,-,N/A,,Clear,220,2012-10-22 08:54:00
5:54 AM,45.0,39.9,82,30.12,10.0,WSW,3.5,-,N/A,,Clear,240,2012-10-22 09:54:00
6:54 AM,48.9,39.9,71,30.14,10.0,WNW,8.1,-,N/A,,Clear,300,2012-10-22 10:54:00
7:54 AM,50.0,39.2,66,30.15,10.0,NW,5.8,-,N/A,,Clear,310,2012-10-22 11:54:00
8:54 AM,53.1,39.9,61,30.17,10.0,WNW,8.1,-,N/A,,Clear,290,2012-10-22 12:54:00
9:54 AM,57.0,41.0,55,30.17,10.0,NW,9.2,-,N/A,,Clear,310,2012-10-22 13:54:00
10:54 AM,60.1,41.0,49,30.16,10.0,NW,10.4,-,N/A,,Clear,320,2012-10-22 14:54:00
11:54 AM,61.0,42.1,50,30.15,10.0,NNW,11.5,18.4,N/A,,Clear,330,2012-10-22 15:54:00
12:54 PM,64.0,42.1,45,30.12,10.0,West,10.4,17.3,N/A,,Clear,280,2012-10-22 16:54:00
1:54 PM,66.0,42.1,42,30.09,10.0,NW,11.5,-,N/A,,Clear,310,2012-10-22 17:54:00
2:54 PM,66.9,41.0,39,30.08,10.0,WNW,16.1,21.9,N/A,,Clear,290,2012-10-22 18:54:00
3:54 PM,66.9,42.1,40,30.08,10.0,WNW,13.8,18.4,N/A,,Clear,290,2012-10-22 19:54:00
4:54 PM,66.9,41.0,39,30.07,10.0,West,12.7,-,N/A,,Clear,270,2012-10-22 20:54:00
5:54 PM,64.0,42.1,45,30.09,7.0,West,6.9,-,N/A,,Clear,280,2012-10-22 21:54:00
6:54 PM,62.1,41.0,46,30.09,10.0,West,8.1,-,N/A,,Clear,270,2012-10-22 22:54:00
7:54 PM,59.0,43.0,55,30.11,10.0,West,6.9,-,N/A,,Clear,270,2012-10-22 23:54:00
8:54 PM,57.9,43.0,58,30.11,10.0,SW,3.5,-,N/A,,Clear,230,2012-10-23 00:54:00
9:54 PM,53.1,43.0,69,30.11,10.0,Calm,Calm,-,N/A,,Clear,0,2012-10-23 01:54:00
10:54 PM,51.1,43.0,74,30.12,10.0,Calm,Calm,-,N/A,,Clear,0,2012-10-23 02:54:00
11:54 PM,50.0,44.1,80,30.11,10.0,Calm,Calm,-,N/A,,Clear,0,2012-10-23 03:54:00